PWSweather.com
Personal Weather Stations
Station Observations
SHAHALMS1
Eftra, Falkenberg, HA

EftraFalkenberg, HA

Lat: 56.85, Lon: 12.65

Elevation: 140

Station Type:

http://hem.passagen.se/risarp101

High Low Average
Temperature 75.2°F24.0°C 59.5°F15.3°C 64.4°F18.0°C
Dew Point 67.0°F19.4°C 56.9°F13.8°C 60.9°F16.1°C
Winds 7.2 mph 11.6 kmh Calm Calm 2.0 mph SE3.2 kmh SE
Wind Gusts 12.9 mph20.8 kmh -- 5.0 mph8.0 kmh
Humidity 95% 68% 89%
Pressure 29.74 in1007.1 mb 29.59 in1002.0 mb -
Precipitation 0.43 in10.9 mm - -
Hour Temp Dew Point Humidity Winds Wind Gusts Pressure Precip Precip Rate Daily Precip Total
12:00 AM 60.3°F15.7°C 58.2°F14.6°C 93% 4.9 mph SE7.9 kmh SE 8.6 mph13.8 kmh 29.68 in1005.1 mb 0.05 in1.3 mm 0.00 in0.0 mm 0.05 in1.3 mm
12:15 AM 60.3°F15.7°C 58.2°F14.6°C 93% 4.9 mph SE7.9 kmh SE 10.0 mph16.1 kmh 29.68 in1005.1 mb 0.09 in2.3 mm 0.16 in4.1 mm 0.09 in2.3 mm
12:30 AM 60.1°F15.6°C 58.0°F14.4°C 93% 2.3 mph SE3.7 kmh SE 7.5 mph12.1 kmh 29.68 in1005.1 mb 0.09 in2.3 mm 0.00 in0.0 mm 0.09 in2.3 mm
12:45 AM 60.1°F15.6°C 58.0°F14.4°C 93% 2.9 mph ESE4.7 kmh ESE 7.9 mph12.7 kmh 29.68 in1005.1 mb 0.05 in1.3 mm 0.00 in0.0 mm 0.09 in2.3 mm
01:00 AM 60.1°F15.6°C 58.0°F14.4°C 93% 2.5 mph E4.0 kmh E 6.8 mph10.9 kmh 29.68 in1005.1 mb 0.05 in1.3 mm 0.00 in0.0 mm 0.09 in2.3 mm
01:15 AM 60.1°F15.6°C 58.0°F14.4°C 93% 0.5 mph E0.8 kmh E 5.0 mph8.0 kmh 29.68 in1005.1 mb 0.00 in0.0 mm 0.00 in0.0 mm 0.09 in2.3 mm
01:30 AM 60.1°F15.6°C 58.0°F14.4°C 93% 3.0 mph E4.8 kmh E 5.0 mph8.0 kmh 29.68 in1005.1 mb 0.00 in0.0 mm 0.00 in0.0 mm 0.09 in2.3 mm
01:45 AM 59.9°F15.5°C 57.9°F14.4°C 93% Calm Calm -- 29.68 in1005.1 mb 0.00 in0.0 mm 0.00 in0.0 mm 0.09 in2.3 mm
02:00 AM 59.9°F15.5°C 57.9°F14.4°C 93% Calm Calm -- 29.68 in1005.1 mb 0.00 in0.0 mm 0.00 in0.0 mm 0.09 in2.3 mm
02:15 AM 59.9°F15.5°C 57.9°F14.4°C 93% Calm Calm -- 29.68 in1005.1 mb 0.00 in0.0 mm 0.00 in0.0 mm 0.09 in2.3 mm
02:30 AM 59.9°F15.5°C 58.2°F14.6°C 94% Calm Calm -- 29.68 in1005.1 mb 0.00 in0.0 mm 0.00 in0.0 mm 0.09 in2.3 mm
02:45 AM 59.9°F15.5°C 58.2°F14.6°C 94% 0.3 mph E0.5 kmh E 1.8 mph2.9 kmh 29.68 in1005.1 mb 0.00 in0.0 mm 0.00 in0.0 mm 0.09 in2.3 mm
03:00 AM 59.9°F15.5°C 57.9°F14.4°C 93% Calm Calm -- 29.68 in1005.1 mb 0.00 in0.0 mm 0.00 in0.0 mm 0.09 in2.3 mm
03:15 AM 59.9°F15.5°C 57.9°F14.4°C 93% Calm Calm -- 29.68 in1005.1 mb 0.00 in0.0 mm 0.00 in0.0 mm 0.09 in2.3 mm
03:30 AM 59.7°F15.4°C 58.0°F14.4°C 94% Calm Calm -- 29.65 in1004.1 mb 0.00 in0.0 mm 0.00 in0.0 mm 0.09 in2.3 mm
03:45 AM 59.7°F15.4°C 58.0°F14.4°C 94% Calm Calm -- 29.65 in1004.1 mb 0.09 in2.3 mm 0.36 in9.1 mm 0.18 in4.6 mm
04:00 AM 59.5°F15.3°C 57.8°F14.3°C 94% Calm Calm -- 29.65 in1004.1 mb 0.09 in2.3 mm 0.00 in0.0 mm 0.18 in4.6 mm
04:15 AM 59.5°F15.3°C 57.8°F14.3°C 94% Calm Calm -- 29.62 in1003.0 mb 0.09 in2.3 mm 0.00 in0.0 mm 0.18 in4.6 mm
04:30 AM 59.5°F15.3°C 57.8°F14.3°C 94% Calm Calm -- 29.62 in1003.0 mb 0.09 in2.3 mm 0.00 in0.0 mm 0.18 in4.6 mm
04:45 AM 59.5°F15.3°C 57.8°F14.3°C 94% Calm Calm -- 29.62 in1003.0 mb 0.00 in0.0 mm 0.00 in0.0 mm 0.18 in4.6 mm
05:00 AM 59.5°F15.3°C 57.8°F14.3°C 94% Calm Calm -- 29.62 in1003.0 mb 0.00 in0.0 mm 0.00 in0.0 mm 0.18 in4.6 mm
05:15 AM 59.7°F15.4°C 58.0°F14.4°C 94% Calm Calm -- 29.62 in1003.0 mb 0.00 in0.0 mm 0.00 in0.0 mm 0.18 in4.6 mm
05:30 AM 59.7°F15.4°C 58.0°F14.4°C 94% Calm Calm -- 29.59 in1002.0 mb 0.00 in0.0 mm 0.00 in0.0 mm 0.18 in4.6 mm
05:45 AM 60.1°F15.6°C 58.3°F14.6°C 94% Calm Calm -- 29.62 in1003.0 mb 0.00 in0.0 mm 0.00 in0.0 mm 0.18 in4.6 mm
06:00 AM 60.3°F15.7°C 58.5°F14.7°C 94% Calm Calm -- 29.59 in1002.0 mb 0.06 in1.5 mm 0.08 in2.0 mm 0.24 in6.1 mm
06:15 AM 60.3°F15.7°C 58.8°F14.9°C 95% Calm Calm -- 29.62 in1003.0 mb 0.06 in1.5 mm 0.00 in0.0 mm 0.24 in6.1 mm
06:30 AM 60.4°F15.8°C 59.0°F15.0°C 95% Calm Calm -- 29.62 in1003.0 mb 0.06 in1.5 mm 0.00 in0.0 mm 0.24 in6.1 mm
06:45 AM 60.4°F15.8°C 59.0°F15.0°C 95% Calm Calm -- 29.62 in1003.0 mb 0.06 in1.5 mm 0.00 in0.0 mm 0.24 in6.1 mm
07:00 AM 60.8°F16.0°C 59.4°F15.2°C 95% Calm Calm -- 29.62 in1003.0 mb 0.00 in0.0 mm 0.00 in0.0 mm 0.24 in6.1 mm
07:15 AM 61.3°F16.3°C 59.9°F15.5°C 95% Calm Calm -- 29.62 in1003.0 mb 0.00 in0.0 mm 0.00 in0.0 mm 0.24 in6.1 mm
07:30 AM 61.5°F16.4°C 60.1°F15.6°C 95% Calm Calm -- 29.62 in1003.0 mb 0.05 in1.3 mm 0.20 in5.1 mm 0.29 in7.4 mm
07:45 AM 61.3°F16.3°C 59.9°F15.5°C 95% Calm Calm -- 29.62 in1003.0 mb 0.05 in1.3 mm 0.00 in0.0 mm 0.29 in7.4 mm
08:00 AM 61.5°F16.4°C 60.1°F15.6°C 95% Calm Calm -- 29.59 in1002.0 mb 0.05 in1.3 mm 0.00 in0.0 mm 0.29 in7.4 mm
08:15 AM 61.7°F16.5°C 60.3°F15.7°C 95% Calm Calm -- 29.62 in1003.0 mb 0.05 in1.3 mm 0.00 in0.0 mm 0.29 in7.4 mm
08:30 AM 61.9°F16.6°C 60.4°F15.8°C 95% Calm Calm -- 29.62 in1003.0 mb 0.00 in0.0 mm 0.00 in0.0 mm 0.29 in7.4 mm
08:45 AM 62.2°F16.8°C 60.8°F16.0°C 95% Calm Calm -- 29.62 in1003.0 mb 0.00 in0.0 mm 0.00 in0.0 mm 0.29 in7.4 mm
09:00 AM 62.6°F17.0°C 60.8°F16.0°C 94% Calm Calm -- 29.62 in1003.0 mb 0.00 in0.0 mm 0.00 in0.0 mm 0.29 in7.4 mm
09:15 AM 62.6°F17.0°C 60.8°F16.0°C 94% Calm Calm -- 29.62 in1003.0 mb 0.00 in0.0 mm 0.00 in0.0 mm 0.29 in7.4 mm
09:30 AM 63.0°F17.2°C 61.2°F16.2°C 94% 4.4 mph E7.1 kmh E 6.1 mph9.8 kmh 29.62 in1003.0 mb 0.00 in0.0 mm 0.00 in0.0 mm 0.29 in7.4 mm
09:45 AM 63.3°F17.4°C 61.6°F16.4°C 94% 4.1 mph ENE6.6 kmh ENE 5.0 mph8.0 kmh 29.62 in1003.0 mb 0.00 in0.0 mm 0.00 in0.0 mm 0.29 in7.4 mm
10:00 AM 63.5°F17.5°C 61.7°F16.5°C 94% Calm Calm -- 29.62 in1003.0 mb 0.05 in1.3 mm 0.07 in1.8 mm 0.33 in8.4 mm
10:15 AM 63.9°F17.7°C 62.1°F16.7°C 94% Calm Calm -- 29.62 in1003.0 mb 0.05 in1.3 mm 0.00 in0.0 mm 0.33 in8.4 mm
10:30 AM 64.4°F18.0°C 62.6°F17.0°C 94% Calm Calm -- 29.62 in1003.0 mb 0.05 in1.3 mm 0.00 in0.0 mm 0.33 in8.4 mm
10:45 AM 65.5°F18.6°C 63.7°F17.6°C 94% Calm Calm -- 29.59 in1002.0 mb 0.05 in1.3 mm 0.00 in0.0 mm 0.33 in8.4 mm
11:00 AM 66.9°F19.4°C 65.1°F18.4°C 94% 3.1 mph E5.0 kmh E 5.0 mph8.0 kmh 29.62 in1003.0 mb 0.00 in0.0 mm 0.00 in0.0 mm 0.33 in8.4 mm
11:15 AM 68.4°F20.2°C 66.3°F19.1°C 93% 5.4 mph E8.7 kmh E 6.8 mph10.9 kmh 29.62 in1003.0 mb 0.00 in0.0 mm 0.00 in0.0 mm 0.33 in8.4 mm
11:30 AM 69.4°F20.8°C 67.0°F19.4°C 92% 3.3 mph ENE5.3 kmh ENE 8.9 mph14.3 kmh 29.62 in1003.0 mb 0.00 in0.0 mm 0.00 in0.0 mm 0.33 in8.4 mm
11:45 AM 70.0°F21.1°C 66.9°F19.4°C 90% 3.5 mph ENE5.6 kmh ENE 10.0 mph16.1 kmh 29.62 in1003.0 mb 0.00 in0.0 mm 0.00 in0.0 mm 0.33 in8.4 mm
12:00 PM 69.6°F20.9°C 65.9°F18.8°C 88% 6.4 mph E10.3 kmh E 7.9 mph12.7 kmh 29.59 in1002.0 mb 0.00 in0.0 mm 0.00 in0.0 mm 0.33 in8.4 mm
12:15 PM 69.1°F20.6°C 65.4°F18.6°C 88% 6.4 mph E10.3 kmh E 7.9 mph12.7 kmh 29.59 in1002.0 mb 0.00 in0.0 mm 0.00 in0.0 mm 0.33 in8.4 mm
12:30 PM 69.3°F20.7°C 65.9°F18.8°C 89% 6.4 mph E10.3 kmh E 7.9 mph12.7 kmh 29.62 in1003.0 mb 0.00 in0.0 mm 0.00 in0.0 mm 0.33 in8.4 mm
12:45 PM 70.2°F21.2°C 66.4°F19.1°C 88% 0.7 mph E1.1 kmh E 5.0 mph8.0 kmh 29.62 in1003.0 mb 0.00 in0.0 mm 0.00 in0.0 mm 0.33 in8.4 mm
01:00 PM 71.1°F21.7°C 66.7°F19.3°C 86% 4.2 mph SE6.8 kmh SE 8.6 mph13.8 kmh 29.62 in1003.0 mb 0.00 in0.0 mm 0.00 in0.0 mm 0.33 in8.4 mm
01:15 PM 70.3°F21.3°C 65.3°F18.5°C 84% Calm Calm -- 29.62 in1003.0 mb 0.00 in0.0 mm 0.00 in0.0 mm 0.33 in8.4 mm
01:30 PM 71.6°F22.0°C 65.8°F18.8°C 82% Calm Calm -- 29.62 in1003.0 mb 0.00 in0.0 mm 0.00 in0.0 mm 0.33 in8.4 mm
01:45 PM 72.1°F22.3°C 66.0°F18.9°C 81% 1.8 mph NW2.9 kmh NW 6.4 mph10.3 kmh 29.62 in1003.0 mb 0.00 in0.0 mm 0.00 in0.0 mm 0.33 in8.4 mm
02:00 PM 72.3°F22.4°C 65.8°F18.8°C 80% 2.8 mph WSW4.5 kmh WSW 6.4 mph10.3 kmh 29.62 in1003.0 mb 0.00 in0.0 mm 0.00 in0.0 mm 0.33 in8.4 mm
02:15 PM 72.7°F22.6°C 65.8°F18.8°C 79% 1.4 mph WSW2.3 kmh WSW 5.4 mph8.7 kmh 29.65 in1004.1 mb 0.00 in0.0 mm 0.00 in0.0 mm 0.33 in8.4 mm
02:30 PM 72.0°F22.2°C 64.4°F18.0°C 77% 4.1 mph WNW6.6 kmh WNW 10.7 mph17.2 kmh 29.62 in1003.0 mb 0.00 in0.0 mm 0.00 in0.0 mm 0.33 in8.4 mm
02:45 PM 73.6°F23.1°C 65.5°F18.6°C 76% 2.6 mph W4.2 kmh W 8.9 mph14.3 kmh 29.62 in1003.0 mb 0.00 in0.0 mm 0.00 in0.0 mm 0.33 in8.4 mm
03:00 PM 74.5°F23.6°C 65.6°F18.7°C 74% 4.3 mph W6.9 kmh W 11.5 mph18.5 kmh 29.59 in1002.0 mb 0.00 in0.0 mm 0.00 in0.0 mm 0.33 in8.4 mm
03:15 PM 74.8°F23.8°C 65.6°F18.7°C 73% 3.2 mph W5.1 kmh W 8.6 mph13.8 kmh 29.65 in1004.1 mb 0.00 in0.0 mm 0.00 in0.0 mm 0.33 in8.4 mm
03:30 PM 74.8°F23.8°C 64.8°F18.2°C 71% 4.4 mph WNW7.1 kmh WNW 11.1 mph17.9 kmh 29.59 in1002.0 mb 0.00 in0.0 mm 0.00 in0.0 mm 0.33 in8.4 mm
03:45 PM 75.2°F24.0°C 64.3°F17.9°C 69% 3.9 mph WNW6.3 kmh WNW 12.9 mph20.8 kmh 29.59 in1002.0 mb 0.00 in0.0 mm 0.00 in0.0 mm 0.33 in8.4 mm
04:00 PM 74.8°F23.8°C 64.0°F17.8°C 69% 3.7 mph NW6.0 kmh NW 10.7 mph17.2 kmh 29.62 in1003.0 mb 0.00 in0.0 mm 0.00 in0.0 mm 0.33 in8.4 mm
04:15 PM 73.4°F23.0°C 62.2°F16.8°C 68% 4.9 mph NNW7.9 kmh NNW 12.2 mph19.6 kmh 29.62 in1003.0 mb 0.00 in0.0 mm 0.00 in0.0 mm 0.33 in8.4 mm
04:30 PM 71.8°F22.1°C 61.1°F16.2°C 69% 5.4 mph N8.7 kmh N 10.0 mph16.1 kmh 29.62 in1003.0 mb 0.00 in0.0 mm 0.00 in0.0 mm 0.33 in8.4 mm
04:45 PM 69.6°F20.9°C 61.7°F16.5°C 76% 7.2 mph N11.6 kmh N 10.4 mph16.7 kmh 29.62 in1003.0 mb 0.05 in1.3 mm 0.20 in5.1 mm 0.38 in9.7 mm
05:00 PM 69.3°F20.7°C 63.2°F17.3°C 81% 7.2 mph NNW11.6 kmh NNW 10.4 mph16.7 kmh 29.62 in1003.0 mb 0.05 in1.3 mm 0.00 in0.0 mm 0.38 in9.7 mm
05:15 PM 68.5°F20.3°C 63.2°F17.3°C 83% 5.2 mph NW8.4 kmh NW 6.4 mph10.3 kmh 29.62 in1003.0 mb 0.05 in1.3 mm 0.00 in0.0 mm 0.38 in9.7 mm
05:30 PM 68.0°F20.0°C 63.0°F17.2°C 84% 5.0 mph NW8.0 kmh NW 10.0 mph16.1 kmh 29.62 in1003.0 mb 0.05 in1.3 mm 0.00 in0.0 mm 0.38 in9.7 mm
05:45 PM 67.6°F19.8°C 63.0°F17.2°C 85% 3.3 mph NW5.3 kmh NW 6.8 mph10.9 kmh 29.65 in1004.1 mb 0.00 in0.0 mm 0.00 in0.0 mm 0.38 in9.7 mm
06:00 PM 67.5°F19.7°C 62.8°F17.1°C 85% 1.9 mph NW3.1 kmh NW 6.4 mph10.3 kmh 29.65 in1004.1 mb 0.00 in0.0 mm 0.00 in0.0 mm 0.38 in9.7 mm
06:15 PM 67.5°F19.7°C 62.8°F17.1°C 85% 3.2 mph NNW5.1 kmh NNW 6.8 mph10.9 kmh 29.65 in1004.1 mb 0.00 in0.0 mm 0.00 in0.0 mm 0.38 in9.7 mm
06:30 PM 67.3°F19.6°C 62.9°F17.2°C 86% 2.8 mph NNW4.5 kmh NNW 6.1 mph9.8 kmh 29.65 in1004.1 mb 0.00 in0.0 mm 0.00 in0.0 mm 0.38 in9.7 mm
06:45 PM 66.7°F19.3°C 62.1°F16.7°C 85% 4.9 mph NNW7.9 kmh NNW 10.4 mph16.7 kmh 29.68 in1005.1 mb 0.00 in0.0 mm 0.00 in0.0 mm 0.38 in9.7 mm
07:00 PM 66.0°F18.9°C 61.4°F16.3°C 85% 4.6 mph NNW7.4 kmh NNW 10.4 mph16.7 kmh 29.68 in1005.1 mb 0.00 in0.0 mm 0.00 in0.0 mm 0.38 in9.7 mm
07:15 PM 65.3°F18.5°C 60.7°F15.9°C 85% 5.6 mph NNW9.0 kmh NNW 10.7 mph17.2 kmh 29.68 in1005.1 mb 0.00 in0.0 mm 0.00 in0.0 mm 0.38 in9.7 mm
07:30 PM 64.8°F18.2°C 60.5°F15.8°C 86% 3.6 mph NW5.8 kmh NW 6.4 mph10.3 kmh 29.71 in1006.1 mb 0.00 in0.0 mm 0.00 in0.0 mm 0.38 in9.7 mm
07:45 PM 64.2°F17.9°C 60.3°F15.7°C 87% 1.3 mph NW2.1 kmh NW 6.1 mph9.8 kmh 29.65 in1004.1 mb 0.00 in0.0 mm 0.00 in0.0 mm 0.38 in9.7 mm
08:00 PM 63.7°F17.6°C 59.7°F15.4°C 87% 2.9 mph W4.7 kmh W 10.4 mph16.7 kmh 29.68 in1005.1 mb 0.00 in0.0 mm 0.00 in0.0 mm 0.38 in9.7 mm
08:15 PM 63.5°F17.5°C 59.9°F15.5°C 88% 3.6 mph W5.8 kmh W 12.9 mph20.8 kmh 29.71 in1006.1 mb 0.00 in0.0 mm 0.00 in0.0 mm 0.38 in9.7 mm
08:30 PM 63.3°F17.4°C 59.7°F15.4°C 88% 3.7 mph NW6.0 kmh NW 7.9 mph12.7 kmh 29.71 in1006.1 mb 0.00 in0.0 mm 0.00 in0.0 mm 0.38 in9.7 mm
08:45 PM 63.1°F17.3°C 59.5°F15.3°C 88% 3.6 mph NW5.8 kmh NW 7.9 mph12.7 kmh 29.71 in1006.1 mb 0.05 in1.3 mm 0.20 in5.1 mm 0.43 in10.9 mm
09:00 PM 63.0°F17.2°C 59.7°F15.4°C 89% 2.2 mph NW3.5 kmh NW 5.7 mph9.2 kmh 29.71 in1006.1 mb 0.05 in1.3 mm 0.00 in0.0 mm 0.43 in10.9 mm
09:15 PM 62.8°F17.1°C 59.5°F15.3°C 89% 2.2 mph NNW3.5 kmh NNW 8.9 mph14.3 kmh 29.71 in1006.1 mb 0.05 in1.3 mm 0.00 in0.0 mm 0.43 in10.9 mm
09:30 PM 62.2°F16.8°C 59.0°F15.0°C 89% 4.5 mph NNW7.2 kmh NNW 10.0 mph16.1 kmh 29.71 in1006.1 mb 0.05 in1.3 mm 0.00 in0.0 mm 0.43 in10.9 mm
09:45 PM 61.9°F16.6°C 58.6°F14.8°C 89% 0.5 mph N0.8 kmh N 3.9 mph6.3 kmh 29.71 in1006.1 mb 0.00 in0.0 mm 0.00 in0.0 mm 0.43 in10.9 mm
10:00 PM 61.7°F16.5°C 58.7°F14.8°C 90% 0.2 mph NW0.3 kmh NW 3.2 mph5.1 kmh 29.71 in1006.1 mb 0.00 in0.0 mm 0.00 in0.0 mm 0.43 in10.9 mm
10:15 PM 61.3°F16.3°C 58.1°F14.5°C 89% 0.5 mph WNW0.8 kmh WNW 3.9 mph6.3 kmh 29.71 in1006.1 mb 0.00 in0.0 mm 0.00 in0.0 mm 0.43 in10.9 mm
10:30 PM 61.0°F16.1°C 58.0°F14.4°C 90% Calm Calm -- 29.71 in1006.1 mb 0.00 in0.0 mm 0.00 in0.0 mm 0.43 in10.9 mm
10:45 PM 60.6°F15.9°C 57.7°F14.3°C 90% Calm Calm -- 29.71 in1006.1 mb 0.00 in0.0 mm 0.00 in0.0 mm 0.43 in10.9 mm
11:00 PM 60.3°F15.7°C 57.3°F14.1°C 90% 0.2 mph W0.3 kmh W 3.2 mph5.1 kmh 29.74 in1007.1 mb 0.00 in0.0 mm 0.00 in0.0 mm 0.44 in11.2 mm
11:15 PM 59.9°F15.5°C 57.0°F13.9°C 90% Calm Calm -- 29.74 in1007.1 mb 0.00 in0.0 mm 0.00 in0.0 mm 0.44 in11.2 mm
11:30 PM 59.7°F15.4°C 57.1°F13.9°C 91% 0.1 mph W0.2 kmh W 2.1 mph3.4 kmh 29.74 in1007.1 mb 0.00 in0.0 mm 0.00 in0.0 mm 0.44 in11.2 mm
11:45 PM 59.5°F15.3°C 56.9°F13.8°C 91% Calm Calm -- 29.74 in1007.1 mb 0.00 in0.0 mm 0.00 in0.0 mm 0.44 in11.2 mm